Terminal Aerodrome Forecast
Issued by NWS Tuscon, AZ

Home | Current Version | Previous Version | Text Only | Print | Product List | Glossary On
Versions: 1 2 3 4 5 6 7 8 9 10 11 12 13
000
FTUS45 KTWC 241700
TAFDUG
TAF
KDUG 241723Z 2418/2518 20006KT P6SM SKC
     FM242100 23012KT P6SM SCT200
     FM250300 35008KT P6SM SKC
     FM251000 12005KT P6SM SKC
     FM251500 22012G20KT P6SM SCT200=

USA.gov is the U.S. government's official web portal to all federal, state and local government web resources and services.